createdAt,value
2022-07-25T00:00:03.853Z,62.73
2022-07-25T00:01:06.287Z,63.04
2022-07-25T00:02:08.877Z,63.17
2022-07-25T00:03:11.040Z,63.25
2022-07-25T00:04:12.887Z,63.07
2022-07-25T00:05:15.944Z,62.61
2022-07-25T00:06:18.074Z,63.05
2022-07-25T00:07:19.670Z,63.26
2022-07-25T00:08:21.232Z,63.34
2022-07-25T00:09:22.794Z,63.38
2022-07-25T00:10:24.530Z,62.97
2022-07-25T00:11:25.969Z,63.21
2022-07-25T00:12:27.662Z,62.91
2022-07-25T00:13:29.187Z,62.72
2022-07-25T00:14:30.875Z,62.29
2022-07-25T00:15:32.427Z,62.56
2022-07-25T00:16:34.090Z,61.73
2022-07-25T00:17:36.269Z,62.40
2022-07-25T00:18:37.826Z,62.48
2022-07-25T00:19:39.632Z,62.44
2022-07-25T00:20:41.162Z,62.92
2022-07-25T00:21:42.749Z,62.30
2022-07-25T00:22:44.253Z,61.84
2022-07-25T00:23:45.825Z,62.57
2022-07-25T00:24:47.381Z,62.21
2022-07-25T00:25:48.935Z,61.78
2022-07-25T00:26:50.541Z,61.92
2022-07-25T00:27:52.205Z,62.03
2022-07-25T00:28:53.990Z,62.56
2022-07-25T00:29:55.583Z,61.81
2022-07-25T00:30:57.192Z,62.33
2022-07-25T00:31:58.995Z,62.10
2022-07-25T00:33:00.529Z,61.82
2022-07-25T00:34:03.096Z,62.11
2022-07-25T00:35:05.262Z,61.59
2022-07-25T00:36:10.311Z,61.45
2022-07-25T00:37:11.848Z,61.78
2022-07-25T00:38:13.802Z,61.84
2022-07-25T00:39:15.347Z,62.07
2022-07-25T00:40:17.177Z,61.70
2022-07-25T00:41:18.723Z,61.60
2022-07-25T00:42:20.261Z,61.92
2022-07-25T00:43:21.810Z,61.79
2022-07-25T00:44:27.133Z,62.16
2022-07-25T00:45:28.751Z,61.89
2022-07-25T00:46:30.452Z,61.95
2022-07-25T00:47:32.975Z,61.52
2022-07-25T00:48:34.483Z,61.85
2022-07-25T00:49:36.106Z,61.41
2022-07-25T00:50:37.691Z,61.55
2022-07-25T00:51:39.310Z,61.26
2022-07-25T00:52:40.948Z,61.55
2022-07-25T00:53:42.793Z,61.01
2022-07-25T00:54:44.316Z,61.24
2022-07-25T00:55:47.421Z,61.16
2022-07-25T00:56:50.734Z,61.28
2022-07-25T00:57:52.308Z,61.26
2022-07-25T00:58:54.304Z,61.15
2022-07-25T00:59:55.955Z,60.98
2022-07-25T01:00:58.243Z,61.56
2022-07-25T01:01:59.916Z,61.00
2022-07-25T01:03:05.674Z,61.49
2022-07-25T01:04:07.833Z,61.30
2022-07-25T01:05:10.196Z,61.41
2022-07-25T01:06:12.579Z,60.86
2022-07-25T01:07:14.746Z,60.93
2022-07-25T01:08:18.103Z,61.30
2022-07-25T01:09:20.840Z,61.16
2022-07-25T01:10:22.446Z,60.32
2022-07-25T01:11:24.787Z,60.56
2022-07-25T01:12:26.407Z,60.35
2022-07-25T01:13:27.974Z,60.10
2022-07-25T01:14:29.487Z,60.47
2022-07-25T01:15:31.754Z,60.63
2022-07-25T01:16:33.766Z,60.22
2022-07-25T01:17:35.296Z,60.27
2022-07-25T01:18:36.780Z,59.97
2022-07-25T01:19:38.269Z,60.39
2022-07-25T01:20:39.899Z,60.41
2022-07-25T01:21:41.622Z,60.29
2022-07-25T01:22:44.126Z,60.11
2022-07-25T01:23:45.624Z,60.85
2022-07-25T01:24:47.110Z,60.43
2022-07-25T01:25:48.620Z,60.73
2022-07-25T01:26:50.159Z,60.43
2022-07-25T01:27:55.456Z,61.03
2022-07-25T01:28:57.774Z,60.89
2022-07-25T01:29:59.303Z,60.64
2022-07-25T01:31:01.127Z,60.65
2022-07-25T01:32:02.858Z,60.42
2022-07-25T01:33:06.924Z,60.78
2022-07-25T01:34:09.577Z,60.50
2022-07-25T01:35:13.323Z,61.08
2022-07-25T01:36:15.093Z,60.64
2022-07-25T01:37:16.633Z,60.89
2022-07-25T01:38:18.236Z,60.90
2022-07-25T01:39:19.825Z,61.13
2022-07-25T01:40:21.371Z,61.27
2022-07-25T01:41:22.959Z,61.15
2022-07-25T01:42:24.610Z,60.94
2022-07-25T01:43:26.150Z,61.26
2022-07-25T01:44:27.620Z,61.29
2022-07-25T01:45:29.347Z,61.46
2022-07-25T01:46:31.064Z,61.26
2022-07-25T01:47:32.715Z,61.07
2022-07-25T01:48:34.424Z,61.51
2022-07-25T01:49:36.081Z,61.07
2022-07-25T01:50:37.640Z,60.94
2022-07-25T01:51:39.126Z,61.44
2022-07-25T01:52:40.678Z,61.26
2022-07-25T01:53:42.278Z,61.72
2022-07-25T01:54:46.141Z,61.51
2022-07-25T01:55:49.524Z,61.43
2022-07-25T01:56:51.109Z,61.15
2022-07-25T01:57:52.630Z,61.22
2022-07-25T01:58:54.229Z,61.36
2022-07-25T01:59:55.809Z,61.28
2022-07-25T02:00:57.715Z,61.38
2022-07-25T02:01:59.474Z,61.62
2022-07-25T02:03:01.112Z,61.07
2022-07-25T02:04:03.813Z,61.49
2022-07-25T02:05:05.813Z,60.91
2022-07-25T02:06:08.082Z,61.40
2022-07-25T02:07:09.630Z,61.53
2022-07-25T02:08:11.398Z,61.29
2022-07-25T02:09:13.015Z,61.75
2022-07-25T02:10:14.686Z,62.10
2022-07-25T02:11:16.330Z,61.74
2022-07-25T02:12:17.992Z,61.77
2022-07-25T02:13:19.669Z,61.53
2022-07-25T02:14:21.388Z,61.91
2022-07-25T02:15:23.084Z,61.95
2022-07-25T02:16:29.121Z,62.00
2022-07-25T02:17:31.016Z,61.94
2022-07-25T02:18:32.631Z,62.48
2022-07-25T02:19:34.383Z,62.57
2022-07-25T02:20:35.945Z,62.56
2022-07-25T02:21:37.415Z,62.47
2022-07-25T02:22:38.935Z,62.74
2022-07-25T02:23:40.443Z,62.74
2022-07-25T02:24:41.999Z,62.26
2022-07-25T02:25:43.498Z,62.76
2022-07-25T02:26:45.055Z,62.58
2022-07-25T02:27:46.558Z,62.54
2022-07-25T02:28:49.926Z,63.02
2022-07-25T02:29:51.487Z,63.26
2022-07-25T02:30:53.120Z,62.84
2022-07-25T02:31:54.726Z,63.43
2022-07-25T02:32:56.311Z,63.73
2022-07-25T02:33:57.823Z,63.53
2022-07-25T02:34:59.403Z,63.68
2022-07-25T02:36:00.988Z,63.63
2022-07-25T02:37:02.656Z,63.64
2022-07-25T02:38:04.174Z,63.68
2022-07-25T02:39:06.146Z,63.49
2022-07-25T02:40:08.557Z,63.30
2022-07-25T02:41:10.213Z,63.43
2022-07-25T02:42:11.715Z,63.81
2022-07-25T02:43:13.278Z,63.12
2022-07-25T02:44:17.126Z,63.14
2022-07-25T02:45:18.852Z,63.45
2022-07-25T02:46:20.523Z,63.07
2022-07-25T02:47:22.144Z,63.23
2022-07-25T02:48:23.688Z,63.06
2022-07-25T02:49:25.268Z,63.03
2022-07-25T02:50:26.980Z,63.08
2022-07-25T02:51:28.551Z,63.24
2022-07-25T02:52:30.193Z,63.28
2022-07-25T02:53:54.795Z,63.13
2022-07-25T02:54:53.447Z,63.35
2022-07-25T02:55:55.124Z,62.93
2022-07-25T02:56:58.241Z,63.25
2022-07-25T02:57:59.920Z,62.95
2022-07-25T02:59:01.558Z,63.17
2022-07-25T03:00:05.587Z,63.36
2022-07-25T03:01:07.301Z,63.48
2022-07-25T03:02:09.073Z,63.35
2022-07-25T03:03:10.664Z,63.53
2022-07-25T03:04:12.306Z,63.99
2022-07-25T03:05:17.034Z,63.91
2022-07-25T03:06:18.626Z,63.87
2022-07-25T03:07:20.185Z,63.90
2022-07-25T03:08:21.722Z,63.97
2022-07-25T03:09:23.550Z,63.81
2022-07-25T03:10:25.104Z,63.80
2022-07-25T03:11:26.707Z,64.17
2022-07-25T03:12:28.243Z,64.44
2022-07-25T03:13:29.785Z,64.40
2022-07-25T03:14:31.465Z,64.28
2022-07-25T03:15:33.054Z,64.54
2022-07-25T03:16:34.698Z,64.57
2022-07-25T03:17:36.308Z,64.55
2022-07-25T03:18:38.518Z,64.46
2022-07-25T03:19:40.171Z,64.25
2022-07-25T03:20:41.718Z,64.77
2022-07-25T03:21:43.368Z,64.56
2022-07-25T03:22:45.092Z,64.81
2022-07-25T03:23:52.024Z,64.81
2022-07-25T03:24:54.303Z,64.70
2022-07-25T03:25:56.010Z,64.59
2022-07-25T03:26:57.568Z,64.23
2022-07-25T03:27:59.134Z,64.54
2022-07-25T03:29:00.720Z,64.18
2022-07-25T03:30:02.310Z,64.22
2022-07-25T03:31:04.467Z,64.23
2022-07-25T03:32:06.613Z,64.59
2022-07-25T03:33:08.159Z,64.85
2022-07-25T03:34:09.891Z,64.72
2022-07-25T03:35:11.541Z,64.56
2022-07-25T03:36:13.124Z,64.66
2022-07-25T03:37:14.707Z,64.85
2022-07-25T03:38:16.295Z,65.01
2022-07-25T03:39:17.901Z,65.15
2022-07-25T03:40:19.572Z,65.20
2022-07-25T03:41:21.266Z,65.11
2022-07-25T03:42:26.601Z,65.25
2022-07-25T03:43:28.602Z,65.29
2022-07-25T03:44:30.112Z,65.31
2022-07-25T03:45:31.716Z,65.31
2022-07-25T03:46:33.357Z,65.11
2022-07-25T03:47:34.888Z,64.96
2022-07-25T03:48:36.460Z,64.90
2022-07-25T03:49:38.135Z,64.96
2022-07-25T03:50:39.978Z,64.81
2022-07-25T03:51:42.192Z,64.79
2022-07-25T03:52:43.764Z,64.75
2022-07-25T03:53:45.332Z,64.51
2022-07-25T03:54:46.829Z,64.68
2022-07-25T03:55:48.591Z,64.80
2022-07-25T03:56:51.392Z,64.83
2022-07-25T03:57:53.076Z,64.37
2022-07-25T03:58:54.573Z,64.53
2022-07-25T03:59:56.033Z,64.09
2022-07-25T04:00:57.714Z,63.99
2022-07-25T04:02:00.306Z,64.16
2022-07-25T04:03:01.872Z,64.17
2022-07-25T04:04:03.850Z,64.01
2022-07-25T04:05:07.416Z,64.25
2022-07-25T04:06:08.950Z,64.27
2022-07-25T04:07:10.515Z,64.33
2022-07-25T04:08:12.261Z,64.62
2022-07-25T04:09:14.483Z,64.46
2022-07-25T04:10:16.191Z,64.63
2022-07-25T04:11:18.315Z,64.50
2022-07-25T04:12:20.131Z,64.67
2022-07-25T04:13:21.694Z,64.82
2022-07-25T04:14:23.181Z,65.17
2022-07-25T04:15:24.750Z,64.99
2022-07-25T04:16:27.968Z,64.66
2022-07-25T04:17:29.724Z,64.54
2022-07-25T04:18:32.069Z,64.46
2022-07-25T04:19:35.803Z,64.56
2022-07-25T04:20:38.126Z,64.78
2022-07-25T04:21:39.768Z,64.52
2022-07-25T04:22:46.285Z,64.33
2022-07-25T04:23:48.619Z,64.17
2022-07-25T04:24:50.128Z,64.43
2022-07-25T04:25:51.630Z,64.22
2022-07-25T04:26:53.161Z,63.82
2022-07-25T04:27:54.647Z,63.81
2022-07-25T04:28:56.161Z,63.92
2022-07-25T04:29:57.657Z,63.82
2022-07-25T04:30:59.192Z,63.74
2022-07-25T04:32:00.882Z,63.67
2022-07-25T04:33:02.655Z,63.13
2022-07-25T04:34:04.663Z,63.09
2022-07-25T04:35:07.353Z,62.22
2022-07-25T04:36:09.569Z,62.07
2022-07-25T04:37:11.275Z,61.09
2022-07-25T04:38:12.920Z,59.75
2022-07-25T04:39:14.617Z,58.66
2022-07-25T04:40:16.327Z,56.68
2022-07-25T04:41:18.061Z,54.51
2022-07-25T04:42:19.599Z,53.60
2022-07-25T04:43:21.277Z,52.29
2022-07-25T04:44:22.775Z,50.00
2022-07-25T04:45:24.442Z,48.72
2022-07-25T04:46:26.006Z,47.24
2022-07-25T04:47:27.583Z,46.28
2022-07-25T04:48:29.262Z,45.25
2022-07-25T04:49:30.775Z,44.11
2022-07-25T04:50:32.304Z,43.70
2022-07-25T04:51:33.846Z,43.73
2022-07-25T04:52:35.406Z,42.27
2022-07-25T04:53:37.010Z,41.62
2022-07-25T04:54:38.523Z,40.28
2022-07-25T04:55:40.114Z,39.64
2022-07-25T04:56:41.619Z,39.61
2022-07-25T04:57:43.233Z,38.91
2022-07-25T04:58:44.841Z,38.72
2022-07-25T04:59:46.369Z,37.55
2022-07-25T05:00:48.188Z,37.03
2022-07-25T05:01:49.894Z,36.60
2022-07-25T05:02:51.670Z,36.41
2022-07-25T05:03:53.274Z,36.19
2022-07-25T05:04:55.076Z,35.83
2022-07-25T05:05:57.194Z,35.26
2022-07-25T05:06:58.814Z,34.36
2022-07-25T05:08:00.407Z,34.13
2022-07-25T05:09:01.987Z,34.21
2022-07-25T05:10:05.056Z,33.84
2022-07-25T05:11:06.519Z,34.04
2022-07-25T05:12:08.370Z,34.12
2022-07-25T05:13:09.899Z,33.66
2022-07-25T05:14:11.446Z,33.81
2022-07-25T05:15:12.966Z,33.39
2022-07-25T05:16:14.630Z,33.01
2022-07-25T05:17:16.354Z,32.56
2022-07-25T05:18:17.876Z,32.55
2022-07-25T05:19:19.448Z,31.84
2022-07-25T05:20:21.147Z,31.69
2022-07-25T05:21:22.620Z,31.51
2022-07-25T05:22:28.310Z,30.83
2022-07-25T05:23:30.694Z,30.46
2022-07-25T05:24:36.182Z,31.30
2022-07-25T05:25:37.690Z,31.45
2022-07-25T05:26:39.190Z,30.99
2022-07-25T05:27:41.421Z,30.94
2022-07-25T05:28:42.921Z,30.70
2022-07-25T05:29:44.602Z,31.54
2022-07-25T05:30:46.151Z,30.30
2022-07-25T05:31:47.768Z,30.47
2022-07-25T05:32:49.439Z,30.02
2022-07-25T05:33:51.020Z,30.10
2022-07-25T05:34:52.806Z,29.72
2022-07-25T05:35:54.409Z,28.94
2022-07-25T05:36:55.949Z,29.18
2022-07-25T05:37:57.517Z,29.59
2022-07-25T05:39:01.359Z,29.95
2022-07-25T05:40:04.377Z,29.81
2022-07-25T05:41:06.009Z,29.74
2022-07-25T05:42:07.887Z,29.47
2022-07-25T05:43:09.501Z,29.42
2022-07-25T05:44:11.049Z,28.49
2022-07-25T05:45:12.703Z,28.20
2022-07-25T05:46:15.141Z,27.62
2022-07-25T05:47:16.849Z,27.05
2022-07-25T05:48:18.424Z,26.62
2022-07-25T05:49:20.194Z,25.81
2022-07-25T05:50:22.000Z,25.62
2022-07-25T05:51:26.828Z,26.33
2022-07-25T05:52:29.235Z,25.84
2022-07-25T05:53:30.812Z,26.49
2022-07-25T05:54:32.448Z,25.96
2022-07-25T05:55:33.990Z,25.92
2022-07-25T05:56:35.618Z,25.79
2022-07-25T05:57:37.238Z,25.78
2022-07-25T05:58:38.807Z,25.38
2022-07-25T05:59:40.472Z,25.83
2022-07-25T06:00:42.098Z,26.27
2022-07-25T06:01:43.949Z,26.29
2022-07-25T06:02:45.655Z,25.11
2022-07-25T06:03:47.341Z,24.87
2022-07-25T06:04:48.873Z,24.26
2022-07-25T06:05:50.376Z,24.21
2022-07-25T06:06:51.973Z,24.28
2022-07-25T06:07:53.543Z,24.72
2022-07-25T06:08:55.100Z,24.46
2022-07-25T06:09:56.676Z,25.00
2022-07-25T06:10:58.521Z,24.77
2022-07-25T06:12:01.251Z,24.81
2022-07-25T06:13:03.216Z,24.82
2022-07-25T06:14:05.161Z,24.60
2022-07-25T06:15:17.756Z,24.89
2022-07-25T06:16:24.662Z,24.45
2022-07-25T06:17:32.027Z,23.80
2022-07-25T06:18:34.500Z,23.71
2022-07-25T06:19:36.107Z,23.18
2022-07-25T06:20:37.757Z,23.11
2022-07-25T06:21:39.341Z,23.13
2022-07-25T06:22:40.919Z,23.81
2022-07-25T06:23:42.562Z,23.61
2022-07-25T06:24:44.265Z,23.67
2022-07-25T06:25:50.445Z,23.79
2022-07-25T06:26:52.252Z,23.94
2022-07-25T06:27:53.893Z,23.43
2022-07-25T06:28:55.524Z,23.15
2022-07-25T06:29:57.095Z,22.93
2022-07-25T06:30:58.634Z,22.96
2022-07-25T06:32:00.349Z,22.31
2022-07-25T06:33:01.876Z,21.74
2022-07-25T06:34:03.909Z,21.52
2022-07-25T06:35:06.075Z,21.14
2022-07-25T06:36:07.909Z,21.75
2022-07-25T06:37:09.618Z,22.12
2022-07-25T06:38:11.268Z,22.01
2022-07-25T06:39:12.808Z,22.05
2022-07-25T06:40:14.790Z,21.70
2022-07-25T06:41:16.365Z,21.97
2022-07-25T06:42:18.018Z,21.81
2022-07-25T06:43:19.550Z,22.07
2022-07-25T06:44:21.187Z,22.09
2022-07-25T06:45:25.209Z,21.80
2022-07-25T06:46:28.174Z,22.13
2022-07-25T06:47:35.499Z,22.15
2022-07-25T06:48:38.016Z,22.25
2022-07-25T06:49:41.192Z,22.03
2022-07-25T06:50:43.014Z,22.26
2022-07-25T06:51:44.498Z,21.40
2022-07-25T06:52:46.904Z,21.50
2022-07-25T06:53:48.535Z,22.01
2022-07-25T06:54:50.148Z,22.58
2022-07-25T06:55:51.698Z,22.62
2022-07-25T06:56:53.186Z,22.16
2022-07-25T06:57:54.734Z,22.15
2022-07-25T06:58:56.258Z,21.90
2022-07-25T06:59:57.882Z,21.99
2022-07-25T07:00:59.438Z,22.52
2022-07-25T07:02:01.018Z,22.10
2022-07-25T07:03:03.521Z,22.19
2022-07-25T07:04:05.626Z,22.10
2022-07-25T07:05:07.713Z,22.34
2022-07-25T07:06:09.716Z,21.80
2022-07-25T07:07:11.398Z,22.06
2022-07-25T07:08:12.996Z,21.85
2022-07-25T07:09:14.598Z,21.46
2022-07-25T07:10:16.950Z,21.77
2022-07-25T07:11:18.497Z,22.10
2022-07-25T07:12:20.050Z,21.61
2022-07-25T07:13:24.324Z,21.73
2022-07-25T07:14:26.255Z,21.66
2022-07-25T07:15:27.843Z,21.93
2022-07-25T07:16:31.924Z,20.79
2022-07-25T07:17:33.692Z,20.67
2022-07-25T07:18:35.232Z,20.85
2022-07-25T07:19:37.188Z,20.47
2022-07-25T07:20:38.702Z,20.43
2022-07-25T07:21:41.533Z,20.52
2022-07-25T07:22:45.859Z,20.98
2022-07-25T07:23:47.462Z,20.71
2022-07-25T07:24:49.824Z,20.20
2022-07-25T07:25:51.874Z,20.16
2022-07-25T07:26:54.640Z,20.49
2022-07-25T07:27:56.217Z,19.97
2022-07-25T07:28:57.764Z,20.25
2022-07-25T07:29:59.336Z,20.91
2022-07-25T07:31:17.383Z,21.67
2022-07-25T07:32:19.622Z,22.22
2022-07-25T07:33:21.369Z,22.93
2022-07-25T07:34:23.070Z,23.38
2022-07-25T07:35:24.852Z,24.35
2022-07-25T07:36:29.329Z,24.58
2022-07-25T07:37:36.603Z,25.00
2022-07-25T07:38:40.370Z,25.75
2022-07-25T07:39:41.839Z,26.38
2022-07-25T07:40:43.799Z,26.45
2022-07-25T07:41:45.344Z,26.85
2022-07-25T07:42:48.847Z,27.68
2022-07-25T07:43:50.583Z,27.93
2022-07-25T07:44:52.066Z,28.68
2022-07-25T07:45:53.573Z,28.97
2022-07-25T07:46:55.108Z,29.02
2022-07-25T07:47:57.098Z,28.91
2022-07-25T07:48:58.759Z,30.07
2022-07-25T07:50:00.283Z,30.62
2022-07-25T07:51:02.246Z,30.17
2022-07-25T07:52:04.073Z,30.84
2022-07-25T07:53:05.627Z,31.50
2022-07-25T07:54:07.198Z,31.83
2022-07-25T07:55:09.517Z,31.23
2022-07-25T07:56:11.053Z,31.70
2022-07-25T07:57:12.555Z,31.56
2022-07-25T07:58:18.628Z,31.08
2022-07-25T07:59:20.133Z,32.68
2022-07-25T08:00:22.543Z,31.70
2022-07-25T08:01:24.182Z,32.46
2022-07-25T08:02:25.829Z,32.42
2022-07-25T08:03:27.497Z,33.42
2022-07-25T08:04:29.087Z,32.97
2022-07-25T08:05:36.077Z,33.69
2022-07-25T08:06:39.188Z,33.49
2022-07-25T08:07:40.727Z,34.02
2022-07-25T08:08:42.322Z,34.00
2022-07-25T08:09:43.871Z,34.25
2022-07-25T08:10:47.620Z,34.39
2022-07-25T08:11:49.200Z,34.35
2022-07-25T08:12:51.161Z,33.65
2022-07-25T08:13:52.715Z,34.58
2022-07-25T08:14:54.196Z,33.91
2022-07-25T08:15:59.200Z,33.48
2022-07-25T08:17:00.958Z,33.86
2022-07-25T08:18:02.689Z,34.16
2022-07-25T08:19:04.270Z,34.82
2022-07-25T08:20:27.953Z,34.52
2022-07-25T08:21:28.561Z,34.73
2022-07-25T08:22:38.288Z,34.56
2022-07-25T08:23:39.851Z,34.71
2022-07-25T08:24:41.347Z,34.54
2022-07-25T08:25:43.582Z,34.50
2022-07-25T08:26:45.106Z,34.19
2022-07-25T08:27:46.967Z,35.12
2022-07-25T08:28:52.557Z,34.95
2022-07-25T08:30:02.987Z,34.57
2022-07-25T08:31:04.666Z,35.33
2022-07-25T08:32:06.371Z,34.87
2022-07-25T08:33:10.661Z,34.76
2022-07-25T08:34:12.180Z,35.17
2022-07-25T08:35:14.078Z,34.64
2022-07-25T08:36:15.595Z,34.36
2022-07-25T08:37:17.050Z,35.14
2022-07-25T08:38:20.104Z,34.73
2022-07-25T08:39:21.784Z,34.91
2022-07-25T08:40:26.292Z,35.01
2022-07-25T08:41:28.752Z,34.74
2022-07-25T08:42:32.789Z,34.94
2022-07-25T08:43:35.093Z,34.73
2022-07-25T08:44:43.974Z,34.44
2022-07-25T08:45:51.174Z,34.83
2022-07-25T08:46:53.116Z,33.54
2022-07-25T08:47:56.299Z,32.58
2022-07-25T08:48:58.229Z,32.25
2022-07-25T08:50:04.352Z,32.19
2022-07-25T08:51:07.145Z,32.25
2022-07-25T08:52:08.892Z,31.87
2022-07-25T08:53:32.010Z,32.04
2022-07-25T08:54:32.332Z,32.12
2022-07-25T08:55:35.913Z,32.52
2022-07-25T08:56:37.440Z,31.80
2022-07-25T08:57:39.080Z,31.94
2022-07-25T08:58:41.563Z,31.06
2022-07-25T08:59:44.712Z,31.26
2022-07-25T09:00:47.449Z,31.14
2022-07-25T09:01:49.305Z,31.68
2022-07-25T09:03:11.425Z,31.48
2022-07-25T09:04:13.145Z,32.45
2022-07-25T09:05:14.893Z,32.00
2022-07-25T09:06:22.033Z,31.95
2022-07-25T09:07:35.493Z,31.88
2022-07-25T09:08:37.033Z,32.41
2022-07-25T09:09:39.224Z,32.53
2022-07-25T09:10:49.496Z,32.23
2022-07-25T09:11:51.054Z,32.64
2022-07-25T09:13:06.170Z,31.40
2022-07-25T09:14:14.275Z,32.32
2022-07-25T09:15:37.428Z,31.45
2022-07-25T09:16:41.806Z,31.20
2022-07-25T09:17:50.711Z,31.70
2022-07-25T09:18:52.267Z,32.30
2022-07-25T09:19:55.585Z,31.62
2022-07-25T09:21:00.962Z,32.50
2022-07-25T09:22:10.261Z,32.17
2022-07-25T09:23:14.468Z,32.53
2022-07-25T09:24:18.182Z,32.53
2022-07-25T09:25:28.566Z,32.00
2022-07-25T09:26:30.123Z,32.51
2022-07-25T09:27:33.212Z,32.77
2022-07-25T09:28:44.921Z,32.69
2022-07-25T09:29:46.435Z,33.20
2022-07-25T09:30:55.158Z,32.19
2022-07-25T09:31:58.424Z,32.34
2022-07-25T09:33:00.607Z,32.49
2022-07-25T09:34:02.104Z,32.63
2022-07-25T09:35:03.867Z,32.17
2022-07-25T09:36:11.054Z,32.18
2022-07-25T09:37:14.981Z,32.01
2022-07-25T09:38:18.191Z,31.60
2022-07-25T09:39:19.819Z,31.57
2022-07-25T09:40:21.398Z,31.97
2022-07-25T09:41:33.910Z,31.38
2022-07-25T09:42:35.425Z,31.65
2022-07-25T09:43:36.885Z,31.65
2022-07-25T09:44:38.446Z,31.63
2022-07-25T09:45:49.458Z,31.20
2022-07-25T09:46:52.188Z,30.96
2022-07-25T09:47:56.508Z,30.31
2022-07-25T09:49:00.003Z,30.33
2022-07-25T09:50:02.392Z,30.43
2022-07-25T09:51:04.277Z,31.41
2022-07-25T09:52:06.397Z,31.30
2022-07-25T09:53:08.150Z,31.30
2022-07-25T09:54:10.218Z,31.49
2022-07-25T09:55:12.192Z,31.14
2022-07-25T09:56:13.718Z,29.88
2022-07-25T09:57:16.046Z,30.44
2022-07-25T09:58:17.597Z,30.62
2022-07-25T09:59:19.253Z,30.42
2022-07-25T10:00:26.649Z,30.86
2022-07-25T10:01:53.956Z,30.62
2022-07-25T10:02:55.479Z,30.16
2022-07-25T10:04:34.225Z,30.14
2022-07-25T10:05:50.971Z,31.08
2022-07-25T10:06:57.303Z,30.11
2022-07-25T10:07:59.717Z,30.37
2022-07-25T10:09:01.324Z,30.49
2022-07-25T10:10:03.300Z,30.07
2022-07-25T10:11:05.144Z,29.68
2022-07-25T10:12:12.846Z,30.62
2022-07-25T10:13:16.628Z,29.45
2022-07-25T10:14:18.460Z,29.60
2022-07-25T10:15:20.144Z,29.97
2022-07-25T10:16:23.766Z,30.69
2022-07-25T10:17:25.440Z,30.77
2022-07-25T10:18:29.519Z,30.81
2022-07-25T10:19:47.395Z,31.13
2022-07-25T10:20:54.353Z,30.68
2022-07-25T10:21:55.916Z,30.78
2022-07-25T10:22:58.361Z,29.33
2022-07-25T10:24:02.944Z,28.98
2022-07-25T10:25:11.667Z,28.62
2022-07-25T10:26:15.368Z,29.67
2022-07-25T10:27:24.014Z,29.40
2022-07-25T10:28:34.999Z,28.79
2022-07-25T10:29:37.907Z,28.88
2022-07-25T10:30:40.698Z,28.37
2022-07-25T10:31:49.448Z,28.37
2022-07-25T10:33:01.249Z,28.63
2022-07-25T10:34:06.591Z,28.78
2022-07-25T10:35:16.836Z,27.76
2022-07-25T10:36:19.984Z,27.77
2022-07-25T10:37:27.914Z,27.97
2022-07-25T10:38:29.512Z,28.38
2022-07-25T10:39:38.799Z,28.32
2022-07-25T10:40:44.575Z,27.15
2022-07-25T10:41:58.467Z,27.44
2022-07-25T10:43:05.907Z,27.29
2022-07-25T10:44:13.109Z,26.97
2022-07-25T10:45:17.644Z,26.97
2022-07-25T10:46:20.608Z,26.46
2022-07-25T10:47:24.393Z,27.54
2022-07-25T10:48:32.009Z,27.05
2022-07-25T10:49:50.178Z,27.16
2022-07-25T10:51:04.113Z,26.87
2022-07-25T10:52:06.023Z,26.91
2022-07-25T10:53:07.542Z,27.56
2022-07-25T10:54:35.955Z,27.36
2022-07-25T10:55:37.648Z,26.91
2022-07-25T10:56:55.294Z,26.21
2022-07-25T10:58:17.174Z,25.77
2022-07-25T10:59:27.323Z,25.70
2022-07-25T11:00:29.624Z,25.85
2022-07-25T11:01:33.229Z,26.16
2022-07-25T11:02:35.819Z,26.40
2022-07-25T11:03:37.449Z,26.20
2022-07-25T11:04:38.916Z,25.93
2022-07-25T11:05:47.782Z,26.46
2022-07-25T11:06:50.274Z,25.69
2022-07-25T11:08:18.837Z,25.28
2022-07-25T11:09:25.041Z,25.35
2022-07-25T11:10:31.949Z,25.26
2022-07-25T11:11:39.349Z,25.41
2022-07-25T11:12:44.754Z,25.86
2022-07-25T11:13:46.283Z,25.26
2022-07-25T11:14:47.927Z,25.18
2022-07-25T11:15:50.011Z,24.92
2022-07-25T11:16:53.870Z,24.94
2022-07-25T11:17:55.495Z,24.83
2022-07-25T11:18:57.262Z,24.71
2022-07-25T11:20:01.437Z,25.20
2022-07-25T11:21:06.705Z,25.30
2022-07-25T11:22:08.727Z,24.43
2022-07-25T11:23:10.330Z,24.24
2022-07-25T11:24:11.903Z,24.28
2022-07-25T11:25:13.993Z,24.53
2022-07-25T11:26:15.619Z,24.71
2022-07-25T11:27:32.267Z,25.18
2022-07-25T11:28:47.765Z,24.60
2022-07-25T11:29:49.572Z,24.52
2022-07-25T11:30:51.229Z,23.84
2022-07-25T11:31:55.336Z,24.59
2022-07-25T11:32:59.096Z,23.76
2022-07-25T11:34:00.705Z,24.22
2022-07-25T11:35:02.324Z,23.77
2022-07-25T11:36:04.630Z,23.59
2022-07-25T11:37:08.635Z,24.02
2022-07-25T11:38:13.638Z,23.77
2022-07-25T11:39:18.872Z,23.71
2022-07-25T11:40:21.763Z,23.92
2022-07-25T11:41:30.350Z,22.92
2022-07-25T11:42:45.976Z,23.00
2022-07-25T11:43:48.625Z,22.80
2022-07-25T11:44:52.490Z,22.72
2022-07-25T11:45:58.272Z,22.63
2022-07-25T11:46:59.873Z,23.35
2022-07-25T11:48:07.311Z,22.44
2022-07-25T11:49:09.339Z,22.42
2022-07-25T11:50:11.636Z,22.93
2022-07-25T11:51:19.396Z,22.79
2022-07-25T11:52:24.080Z,22.27
2022-07-25T11:53:25.769Z,22.92
2022-07-25T11:54:27.262Z,22.59
2022-07-25T11:55:30.761Z,23.03
2022-07-25T11:56:42.955Z,23.25
2022-07-25T11:57:47.132Z,23.16
2022-07-25T11:58:59.259Z,23.48
2022-07-25T12:00:08.278Z,24.01
2022-07-25T12:01:15.772Z,24.24
2022-07-25T12:02:28.625Z,23.57
2022-07-25T12:03:37.872Z,23.51
2022-07-25T12:04:39.515Z,23.58
2022-07-25T12:05:41.754Z,23.57
2022-07-25T12:06:45.567Z,24.04
2022-07-25T12:07:52.512Z,24.75
2022-07-25T12:08:54.118Z,24.58
2022-07-25T12:09:56.995Z,24.72
2022-07-25T12:10:58.495Z,24.71
2022-07-25T12:12:04.567Z,24.59
2022-07-25T12:13:07.786Z,24.37
2022-07-25T12:14:10.059Z,24.42
2022-07-25T12:15:13.051Z,24.45
2022-07-25T12:16:14.632Z,23.89
2022-07-25T12:17:16.374Z,23.63
2022-07-25T12:18:18.559Z,23.23
2022-07-25T12:19:21.558Z,23.26
2022-07-25T12:20:27.141Z,23.28
2022-07-25T12:21:28.659Z,24.25
2022-07-25T12:22:30.167Z,23.95
2022-07-25T12:23:31.736Z,24.07
2022-07-25T12:24:33.276Z,23.92
2022-07-25T12:25:36.816Z,23.79
2022-07-25T12:26:38.323Z,23.47
2022-07-25T12:27:40.365Z,23.81
2022-07-25T12:28:42.021Z,24.17
2022-07-25T12:29:43.524Z,24.23
2022-07-25T12:30:46.424Z,24.19
2022-07-25T12:31:48.011Z,24.21
2022-07-25T12:32:49.551Z,23.98
2022-07-25T12:33:51.055Z,24.15
2022-07-25T12:34:52.542Z,24.28
2022-07-25T12:35:54.090Z,24.59
2022-07-25T12:36:55.590Z,23.89
2022-07-25T12:37:57.143Z,24.71
2022-07-25T12:38:58.622Z,24.56
2022-07-25T12:40:00.522Z,25.14
2022-07-25T12:41:02.034Z,24.70
2022-07-25T12:42:03.605Z,24.29
2022-07-25T12:43:05.372Z,24.53
2022-07-25T12:44:06.838Z,24.42
2022-07-25T12:45:08.869Z,24.69
2022-07-25T12:46:10.403Z,25.17
2022-07-25T12:47:12.041Z,25.09
2022-07-25T12:48:14.677Z,25.01
2022-07-25T12:49:16.393Z,25.20
2022-07-25T12:50:18.035Z,25.60
2022-07-25T12:51:19.633Z,25.87
2022-07-25T12:52:21.603Z,25.84
2022-07-25T12:53:23.125Z,26.10
2022-07-25T12:54:24.682Z,26.04
2022-07-25T12:55:26.608Z,26.48
2022-07-25T12:56:28.043Z,26.41
2022-07-25T12:57:29.505Z,26.36
2022-07-25T12:58:31.038Z,26.43
2022-07-25T12:59:32.889Z,26.18
2022-07-25T13:00:34.722Z,26.14
2022-07-25T13:01:36.521Z,26.70
2022-07-25T13:02:38.523Z,26.58
2022-07-25T13:03:40.018Z,25.75
2022-07-25T13:04:41.582Z,25.77
2022-07-25T13:05:43.176Z,25.98
2022-07-25T13:06:44.622Z,25.98
2022-07-25T13:07:46.430Z,25.43
2022-07-25T13:08:48.153Z,25.40
2022-07-25T13:09:49.982Z,25.24
2022-07-25T13:10:51.571Z,25.90
2022-07-25T13:11:53.577Z,25.42
2022-07-25T13:12:55.011Z,25.23
2022-07-25T13:13:56.669Z,25.69
2022-07-25T13:14:58.248Z,25.85
2022-07-25T13:15:59.752Z,24.96
2022-07-25T13:17:01.337Z,25.06
2022-07-25T13:18:03.558Z,25.52
2022-07-25T13:19:05.800Z,25.05
2022-07-25T13:20:08.709Z,24.90
2022-07-25T13:21:10.880Z,24.72
2022-07-25T13:22:12.396Z,24.32
2022-07-25T13:23:18.819Z,24.77
2022-07-25T13:24:22.035Z,24.41
2022-07-25T13:25:23.572Z,24.70
2022-07-25T13:26:25.330Z,24.78
2022-07-25T13:27:26.886Z,24.71
2022-07-25T13:28:28.905Z,24.98
2022-07-25T13:29:30.407Z,24.53
2022-07-25T13:30:31.893Z,24.94
2022-07-25T13:31:33.478Z,25.26